createdAt,value
2019-04-05T00:01:53.834Z,23.83
2019-04-05T00:04:57.450Z,20.27
2019-04-05T00:08:01.623Z,21.30
2019-04-05T00:11:05.257Z,28.30
2019-04-05T00:14:08.810Z,21.47
2019-04-05T00:17:12.379Z,21.77
2019-04-05T00:20:16.749Z,21.97
2019-04-05T00:23:20.301Z,21.87
2019-04-05T00:26:24.462Z,21.47
2019-04-05T00:29:28.020Z,21.10
2019-04-05T00:32:31.624Z,20.87
2019-04-05T00:35:35.496Z,19.93
2019-04-05T00:38:39.062Z,21.87
2019-04-05T00:41:42.630Z,19.97
2019-04-05T00:44:46.483Z,19.77
2019-04-05T00:47:50.048Z,22.93
2019-04-05T00:50:53.900Z,19.40
2019-04-05T00:53:57.459Z,21.47
2019-04-05T00:57:01.020Z,18.53
2019-04-05T01:00:06.172Z,18.63
2019-04-05T01:03:09.737Z,18.93
2019-04-05T01:06:13.412Z,20.00
2019-04-05T01:09:17.271Z,20.20
2019-04-05T01:12:22.806Z,18.90
2019-04-05T01:15:26.370Z,18.80
2019-04-05T01:18:29.943Z,19.40
2019-04-05T01:21:39.038Z,18.97
2019-04-05T01:24:42.609Z,20.87
2019-04-05T01:27:48.484Z,19.33
2019-04-05T01:30:51.454Z,18.27
2019-04-05T01:33:55.075Z,21.60
2019-04-05T01:36:58.653Z,18.50
2019-04-05T01:40:02.815Z,18.37
2019-04-05T01:43:06.562Z,20.73
2019-04-05T01:46:10.190Z,16.67
2019-04-05T01:49:14.111Z,19.47
2019-04-05T01:52:17.695Z,18.07
2019-04-05T01:55:21.263Z,18.07
2019-04-05T01:58:24.832Z,18.17
2019-04-05T02:01:28.401Z,16.97
2019-04-05T02:04:31.975Z,17.27
2019-04-05T02:07:36.009Z,17.67
2019-04-05T02:10:39.912Z,15.10
2019-04-05T02:13:43.480Z,17.27
2019-04-05T02:16:47.112Z,18.57
2019-04-05T02:19:50.682Z,18.40
2019-04-05T02:22:54.645Z,20.53
2019-04-05T02:25:58.217Z,14.97
2019-04-05T02:29:01.781Z,19.07
2019-04-05T02:32:05.774Z,17.93
2019-04-05T02:35:09.413Z,18.00
2019-04-05T02:38:13.360Z,16.77
2019-04-05T02:41:17.694Z,18.07
2019-04-05T02:44:22.434Z,17.47
2019-04-05T02:47:26.260Z,17.17
2019-04-05T02:50:31.635Z,16.83
2019-04-05T02:53:36.058Z,15.47
2019-04-05T02:56:40.636Z,18.10
2019-04-05T02:59:44.679Z,14.83
2019-04-05T03:02:48.981Z,18.70
2019-04-05T03:05:52.915Z,14.77
2019-04-05T03:08:56.848Z,15.17
2019-04-05T03:12:00.492Z,16.87
2019-04-05T03:15:05.450Z,15.73
2019-04-05T03:18:09.154Z,16.40
2019-04-05T03:21:12.999Z,16.43
2019-04-05T03:24:20.813Z,17.83
2019-04-05T03:27:29.160Z,17.50
2019-04-05T03:30:32.749Z,16.23
2019-04-05T03:33:36.693Z,17.33
2019-04-05T03:36:40.826Z,17.10
2019-04-05T03:39:44.454Z,17.13
2019-04-05T03:42:48.515Z,17.33
2019-04-05T03:45:52.376Z,15.17
2019-04-05T03:48:56.352Z,15.53
2019-04-05T03:52:00.190Z,18.40
2019-04-05T03:55:03.778Z,17.23
2019-04-05T03:58:07.655Z,19.70
2019-04-05T04:01:11.285Z,19.20
2019-04-05T04:04:15.171Z,16.97
2019-04-05T04:07:18.782Z,15.43
2019-04-05T04:10:22.726Z,15.83
2019-04-05T04:13:26.557Z,31.77
2019-04-05T04:16:30.315Z,118.27
2019-04-05T04:19:33.953Z,195.63
2019-04-05T04:22:37.813Z,174.63
2019-04-05T04:25:41.672Z,62.03
2019-04-05T04:28:45.416Z,203.17
2019-04-05T04:31:49.530Z,105.20
2019-04-05T04:34:53.773Z,155.30
2019-04-05T04:37:58.022Z,754.67
2019-04-05T04:41:01.641Z,704.53
2019-04-05T04:44:05.897Z,693.73
2019-04-05T04:47:09.859Z,670.80
2019-04-05T04:50:13.596Z,631.93
2019-04-05T04:53:17.344Z,482.13
2019-04-05T04:56:21.089Z,385.23
2019-04-05T04:59:25.100Z,341.37
2019-04-05T05:02:29.194Z,306.97
2019-04-05T05:05:33.094Z,74.37
2019-04-05T05:08:36.862Z,71.77
2019-04-05T05:11:40.639Z,127.13
2019-04-05T05:14:44.270Z,138.57
2019-04-05T05:17:58.043Z,146.73
2019-04-05T05:20:53.415Z,149.60
2019-04-05T05:23:57.396Z,156.90
2019-04-05T05:27:01.348Z,149.30
2019-04-05T05:30:05.995Z,144.13
2019-04-05T05:33:09.743Z,138.47
2019-04-05T05:36:13.388Z,138.43
2019-04-05T05:39:17.462Z,131.93
2019-04-05T05:42:21.103Z,146.57
2019-04-05T05:45:24.671Z,134.13
2019-04-05T05:48:30.898Z,129.30
2019-04-05T05:51:34.167Z,129.57
2019-04-05T05:54:37.754Z,118.23
2019-04-05T05:57:41.316Z,119.50
2019-04-05T06:00:45.154Z,117.67
2019-04-05T06:03:48.732Z,116.70
2019-04-05T06:06:52.863Z,119.63
2019-04-05T06:09:56.432Z,114.30
2019-04-05T06:13:00.019Z,111.43
2019-04-05T06:16:03.643Z,107.70
2019-04-05T06:19:07.324Z,110.43
2019-04-05T06:22:10.931Z,105.17
2019-04-05T06:25:14.819Z,109.50
2019-04-05T06:28:18.445Z,104.30
2019-04-05T06:31:22.336Z,107.70
2019-04-05T06:34:25.944Z,102.67
2019-04-05T06:37:29.790Z,100.10
2019-04-05T06:40:40.622Z,94.53
2019-04-05T06:43:39.705Z,94.47
2019-04-05T06:46:43.643Z,98.17
2019-04-05T06:49:47.231Z,97.70
2019-04-05T06:52:51.103Z,88.93
2019-04-05T06:55:54.710Z,92.67
2019-04-05T06:58:58.292Z,92.00
2019-04-05T07:02:01.877Z,87.17
2019-04-05T07:05:05.883Z,91.83
2019-04-05T07:08:09.900Z,86.47
2019-04-05T07:11:13.521Z,81.57
2019-04-05T07:14:17.397Z,84.83
2019-04-05T07:17:20.983Z,81.40
2019-04-05T07:20:24.573Z,81.40
2019-04-05T07:23:28.154Z,80.77
2019-04-05T07:26:31.746Z,76.77
2019-04-05T07:29:35.626Z,81.73
2019-04-05T07:32:39.286Z,80.60
2019-04-05T07:35:43.142Z,80.43
2019-04-05T07:38:46.744Z,77.67
2019-04-05T07:41:50.335Z,74.13
2019-04-05T07:44:53.923Z,73.90
2019-04-05T07:47:58.376Z,75.90
2019-04-05T07:51:01.966Z,73.33
2019-04-05T07:54:05.546Z,72.17
2019-04-05T07:57:10.114Z,71.70
2019-04-05T08:00:43.725Z,71.77
2019-04-05T08:03:47.722Z,69.27
2019-04-05T08:06:51.589Z,68.90
2019-04-05T08:09:55.707Z,69.83
2019-04-05T08:12:59.579Z,65.97
2019-04-05T08:16:03.598Z,69.17
2019-04-05T08:19:07.206Z,63.67
2019-04-05T08:22:11.108Z,62.63
2019-04-05T08:25:14.687Z,64.73
2019-04-05T08:28:18.273Z,61.13
2019-04-05T08:31:21.854Z,64.27
2019-04-05T08:34:25.441Z,63.47
2019-04-05T08:37:29.154Z,59.93
2019-04-05T08:40:32.816Z,61.73
2019-04-05T08:43:36.414Z,60.43
2019-04-05T08:46:40.063Z,57.60
2019-04-05T08:49:43.970Z,59.00
2019-04-05T08:52:47.571Z,55.30
2019-04-05T08:55:51.445Z,57.30
2019-04-05T08:58:55.371Z,58.50
2019-04-05T09:01:58.954Z,58.10
2019-04-05T09:05:02.544Z,53.67
2019-04-05T09:08:06.159Z,55.23
2019-04-05T09:11:10.400Z,53.57
2019-04-05T09:14:13.987Z,53.03
2019-04-05T09:17:17.575Z,52.93
2019-04-05T09:20:21.233Z,54.37
2019-04-05T09:23:25.239Z,52.67
2019-04-05T09:26:28.829Z,50.27
2019-04-05T09:29:32.482Z,50.53
2019-04-05T09:32:36.648Z,50.57
2019-04-05T09:35:41.235Z,48.67
2019-04-05T09:38:44.815Z,49.53
2019-04-05T09:41:48.426Z,52.90
2019-04-05T09:44:52.370Z,48.43
2019-04-05T09:47:55.967Z,45.97
2019-04-05T09:50:59.653Z,47.53
2019-04-05T09:54:03.239Z,48.97
2019-04-05T09:57:06.843Z,49.70
2019-04-05T10:00:14.907Z,45.93
2019-04-05T10:03:18.847Z,47.60
2019-04-05T10:06:22.447Z,46.33
2019-04-05T10:09:26.353Z,44.73
2019-04-05T10:12:29.943Z,46.23
2019-04-05T10:15:33.872Z,43.67
2019-04-05T10:18:37.793Z,45.27
2019-04-05T10:21:41.383Z,45.30
2019-04-05T10:24:44.966Z,43.33
2019-04-05T10:27:48.913Z,44.83
2019-04-05T10:30:52.889Z,41.93
2019-04-05T10:33:56.469Z,46.77
2019-04-05T10:37:00.058Z,41.87
2019-04-05T10:40:05.274Z,41.57
2019-04-05T10:43:09.234Z,40.73
2019-04-05T10:46:12.823Z,43.57
2019-04-05T10:49:16.411Z,41.87
2019-04-05T10:52:20.015Z,41.73
2019-04-05T10:55:23.596Z,40.40
2019-04-05T10:58:27.199Z,40.40
2019-04-05T11:01:30.835Z,42.23
2019-04-05T11:04:34.515Z,40.50
2019-04-05T11:07:38.438Z,35.90
2019-04-05T11:10:42.049Z,38.63
2019-04-05T11:13:45.653Z,36.83
2019-04-05T11:16:58.205Z,40.20
2019-04-05T11:19:55.202Z,40.50
2019-04-05T11:22:58.790Z,35.20
2019-04-05T11:26:02.378Z,38.53
2019-04-05T11:29:05.990Z,38.53
2019-04-05T11:32:09.573Z,36.40
2019-04-05T11:35:15.016Z,40.77
2019-04-05T11:38:19.007Z,37.57
2019-04-05T11:41:24.100Z,36.27
2019-04-05T11:44:28.582Z,35.53
2019-04-05T11:47:32.641Z,37.17
2019-04-05T11:50:36.305Z,33.63
2019-04-05T11:53:40.174Z,36.70
2019-04-05T11:56:44.020Z,34.70
2019-04-05T11:59:48.780Z,34.23
2019-04-05T12:02:59.541Z,32.87
2019-04-05T12:06:03.493Z,32.70
2019-04-05T12:09:08.319Z,35.13
2019-04-05T12:12:11.909Z,34.23
2019-04-05T12:15:15.874Z,34.43
2019-04-05T12:18:19.854Z,34.17
2019-04-05T12:21:23.862Z,34.07
2019-04-05T12:24:27.571Z,36.10
2019-04-05T12:27:31.153Z,33.17
2019-04-05T12:30:34.753Z,34.20
2019-04-05T12:33:38.637Z,29.67
2019-04-05T12:36:42.227Z,32.00
2019-04-05T12:39:46.123Z,30.53
2019-04-05T12:42:52.893Z,30.73
2019-04-05T12:45:55.523Z,31.87
2019-04-05T12:48:59.366Z,31.93
2019-04-05T12:52:02.954Z,34.10
2019-04-05T12:55:07.208Z,32.40
2019-04-05T12:58:11.099Z,30.47
2019-04-05T13:01:14.694Z,29.77
2019-04-05T13:04:20.431Z,38.73
2019-04-05T13:07:23.643Z,37.10
2019-04-05T13:10:30.262Z,35.27
2019-04-05T13:13:32.553Z,73.20
2019-04-05T13:16:36.149Z,84.10
2019-04-05T13:19:39.741Z,83.00
2019-04-05T13:22:43.354Z,133.63
2019-04-05T13:25:47.031Z,212.43
2019-04-05T13:28:50.953Z,885.40
2019-04-05T13:31:54.937Z,206.43
2019-04-05T13:34:58.538Z,176.13
2019-04-05T13:38:02.147Z,166.20
2019-04-05T13:41:05.851Z,229.57
2019-04-05T13:44:09.444Z,136.67
2019-04-05T13:47:13.034Z,149.37
2019-04-05T13:50:19.343Z,127.77
2019-04-05T13:53:22.249Z,149.60
2019-04-05T13:56:25.855Z,95.77
2019-04-05T13:59:29.797Z,105.80
2019-04-05T14:02:33.430Z,89.27
2019-04-05T14:05:37.012Z,94.33
2019-04-05T14:08:41.871Z,146.00
2019-04-05T14:11:45.669Z,87.67
2019-04-05T14:14:51.457Z,74.40
2019-04-05T14:17:54.663Z,89.43
2019-04-05T14:20:58.563Z,78.30
2019-04-05T14:24:04.176Z,77.93
2019-04-05T14:27:07.459Z,82.10
2019-04-05T14:30:13.765Z,80.27
2019-04-05T14:33:17.488Z,78.27
2019-04-05T14:36:23.080Z,79.10
2019-04-05T14:39:26.733Z,78.50
2019-04-05T14:42:30.600Z,71.70
2019-04-05T14:45:34.216Z,67.37
2019-04-05T14:48:37.792Z,75.00
2019-04-05T14:51:52.386Z,60.90
2019-04-05T14:54:46.703Z,60.47
2019-04-05T14:57:50.628Z,61.27
2019-04-05T15:00:54.239Z,61.87
2019-04-05T15:03:57.848Z,61.17
2019-04-05T15:07:01.472Z,54.27
2019-04-05T15:10:06.903Z,52.17
2019-04-05T15:13:10.488Z,52.17
2019-04-05T15:16:14.558Z,49.13
2019-04-05T15:19:18.259Z,50.13
2019-04-05T15:22:21.837Z,50.50
2019-04-05T15:25:25.734Z,46.47
2019-04-05T15:28:29.323Z,48.23
2019-04-05T15:31:32.918Z,47.37
2019-04-05T15:34:36.518Z,46.20
2019-04-05T15:37:40.438Z,46.23
2019-04-05T15:40:44.068Z,45.00
2019-04-05T15:43:47.674Z,46.23
2019-04-05T15:46:51.522Z,43.63
2019-04-05T15:49:55.106Z,44.87
2019-04-05T15:52:59.659Z,41.70
2019-04-05T15:56:04.801Z,42.80
2019-04-05T15:59:08.533Z,44.27
2019-04-05T16:02:12.120Z,43.47
2019-04-05T16:05:16.069Z,40.87
2019-04-05T16:08:20.117Z,39.20
2019-04-05T16:11:23.733Z,39.30
2019-04-05T16:14:27.329Z,37.53
2019-04-05T16:17:31.249Z,37.30
2019-04-05T16:20:35.120Z,39.40
2019-04-05T16:23:38.719Z,38.00
2019-04-05T16:26:42.338Z,85.90
2019-04-05T16:29:46.550Z,78.17
2019-04-05T16:32:50.154Z,93.57
2019-04-05T16:35:53.735Z,89.33
2019-04-05T16:38:57.350Z,121.93
2019-04-05T16:42:00.958Z,85.93
2019-04-05T16:45:05.729Z,86.50
2019-04-05T16:48:09.318Z,74.23
2019-04-05T16:51:12.924Z,84.37
2019-04-05T16:54:16.530Z,95.17
2019-04-05T16:57:20.128Z,75.63
2019-04-05T17:00:24.760Z,69.17
2019-04-05T17:03:28.421Z,74.47
2019-04-05T17:06:32.015Z,68.37
2019-04-05T17:09:35.972Z,70.20
2019-04-05T17:12:39.646Z,68.00
2019-04-05T17:15:43.513Z,67.30
2019-04-05T17:18:47.125Z,60.63
2019-04-05T17:21:50.718Z,62.90
2019-04-05T17:24:54.589Z,61.67
2019-04-05T17:27:59.526Z,69.53
2019-04-05T17:31:03.136Z,63.00
2019-04-05T17:34:06.807Z,74.17
2019-04-05T17:37:10.399Z,79.03
2019-04-05T17:40:14.452Z,73.50
2019-04-05T17:43:18.021Z,81.90
2019-04-05T17:46:21.993Z,68.60
2019-04-05T17:49:26.026Z,75.83
2019-04-05T17:52:29.632Z,71.63
2019-04-05T17:55:33.314Z,75.00
2019-04-05T17:58:37.687Z,67.90
2019-04-05T18:01:41.617Z,67.60
2019-04-05T18:04:45.301Z,67.60
2019-04-05T18:07:49.206Z,54.53
2019-04-05T18:10:53.062Z,52.70
2019-04-05T18:13:56.679Z,45.37
2019-04-05T18:17:00.357Z,41.57
2019-04-05T18:20:04.539Z,38.90
2019-04-05T18:23:08.502Z,38.53
2019-04-05T18:26:12.416Z,40.87
2019-04-05T18:29:16.011Z,35.07
2019-04-05T18:32:19.637Z,35.60
2019-04-05T18:35:23.248Z,37.00
2019-04-05T18:38:27.193Z,38.13
2019-04-05T18:41:31.066Z,33.20
2019-04-05T18:44:34.900Z,30.33
2019-04-05T18:47:38.774Z,31.97
2019-04-05T18:50:42.394Z,31.90
2019-04-05T18:53:46.001Z,27.97
2019-04-05T18:56:50.198Z,31.10
2019-04-05T18:59:54.109Z,29.07
2019-04-05T19:02:58.014Z,28.57
2019-04-05T19:06:01.615Z,97.30
2019-04-05T19:09:07.224Z,67.87
2019-04-05T19:12:10.833Z,153.07
2019-04-05T19:15:14.997Z,167.77
2019-04-05T19:18:19.039Z,145.97
2019-04-05T19:21:22.922Z,145.43
2019-04-05T19:24:26.532Z,151.33
2019-04-05T19:27:30.442Z,149.47
2019-04-05T19:49:07.659Z,107.93
2019-04-05T19:52:11.287Z,104.13
2019-04-05T19:55:14.882Z,88.20
2019-04-05T19:58:18.482Z,80.50
2019-04-05T20:01:22.085Z,56.53
2019-04-05T20:04:25.712Z,558.00
2019-04-05T20:07:29.315Z,124.97
2019-04-05T20:10:33.588Z,381.43
2019-04-05T20:13:37.499Z,317.70
2019-04-05T20:16:41.129Z,299.50
2019-04-05T20:19:45.348Z,283.93
2019-04-05T20:22:48.964Z,285.30
2019-04-05T20:25:52.578Z,277.33
2019-04-05T20:28:56.203Z,268.00
2019-04-05T20:31:59.823Z,243.90
2019-04-05T20:35:03.484Z,60.87
2019-04-05T20:38:07.682Z,60.97
2019-04-05T20:41:11.295Z,59.03
2019-04-05T20:44:15.487Z,317.43
2019-04-05T20:47:19.085Z,223.73
2019-04-05T20:50:22.708Z,190.67
2019-04-05T20:53:26.350Z,181.47
2019-04-05T20:56:30.631Z,178.97
2019-04-05T20:59:34.254Z,168.87
2019-04-05T21:02:38.257Z,163.07
2019-04-05T21:05:42.201Z,158.17
2019-04-05T21:08:46.375Z,151.20
2019-04-05T21:11:50.493Z,146.77
2019-04-05T21:14:54.111Z,142.43
2019-04-05T21:17:57.718Z,138.73
2019-04-05T21:21:01.643Z,122.63
2019-04-05T21:24:05.318Z,124.53
2019-04-05T21:27:08.916Z,110.97
2019-04-05T21:30:12.706Z,107.47
2019-04-05T21:33:16.624Z,104.27
2019-04-05T21:36:20.479Z,100.97
2019-04-05T21:39:24.381Z,97.53
2019-04-05T21:42:28.267Z,99.00
2019-04-05T21:45:31.867Z,94.77
2019-04-05T21:48:35.755Z,92.87
2019-04-05T21:51:39.917Z,93.20
2019-04-05T21:54:47.820Z,85.30
2019-04-05T21:57:48.862Z,86.43
2019-04-05T22:00:57.287Z,82.33
2019-04-05T22:04:01.067Z,79.00
2019-04-05T22:07:04.763Z,75.07
2019-04-05T22:10:08.886Z,76.97
2019-04-05T22:13:12.493Z,72.53
2019-04-05T22:16:16.095Z,75.43
2019-04-05T22:19:19.967Z,68.33
2019-04-05T22:22:23.573Z,70.27
2019-04-05T22:25:27.439Z,67.83
2019-04-05T22:28:31.067Z,67.33
2019-04-05T22:31:34.694Z,66.37
2019-04-05T22:34:38.559Z,60.80
2019-04-05T22:37:42.460Z,65.83
2019-04-05T22:40:46.075Z,62.10
2019-04-05T22:43:49.671Z,62.60
2019-04-05T22:46:53.901Z,57.27
2019-04-05T22:49:57.490Z,57.93
2019-04-05T22:53:01.098Z,59.97
2019-04-05T22:56:05.049Z,55.07
2019-04-05T22:59:08.942Z,54.87
2019-04-05T23:02:12.886Z,53.10
2019-04-05T23:05:16.479Z,52.13
2019-04-05T23:08:20.106Z,50.40
2019-04-05T23:11:24.048Z,49.77
2019-04-05T23:14:27.638Z,50.27
2019-04-05T23:17:31.587Z,48.70
2019-04-05T23:20:35.203Z,47.47
2019-04-05T23:23:39.067Z,48.53
2019-04-05T23:26:43.031Z,47.87
2019-04-05T23:29:46.930Z,48.73
2019-04-05T23:32:50.538Z,44.13
2019-04-05T23:35:54.130Z,47.23
2019-04-05T23:38:58.056Z,45.07
2019-04-05T23:42:02.032Z,42.40
2019-04-05T23:45:06.558Z,42.30
2019-04-05T23:48:10.503Z,40.93
2019-04-05T23:51:14.113Z,43.20
2019-04-05T23:54:18.317Z,43.57
2019-04-05T23:57:21.901Z,42.87
